createdAt,value
2023-05-06T00:00:07.008Z,0.00
2023-05-06T00:01:06.977Z,0.00
2023-05-06T00:02:06.955Z,0.00
2023-05-06T00:03:07.079Z,0.00
2023-05-06T00:04:07.073Z,0.00
2023-05-06T00:05:07.053Z,0.00
2023-05-06T00:06:06.892Z,0.00
2023-05-06T00:07:06.888Z,0.00
2023-05-06T00:08:06.866Z,0.00
2023-05-06T00:09:06.852Z,0.00
2023-05-06T00:10:06.854Z,0.00
2023-05-06T00:11:06.828Z,0.00
2023-05-06T00:12:06.828Z,0.00
2023-05-06T00:13:06.902Z,0.00
2023-05-06T00:14:06.864Z,0.00
2023-05-06T00:15:06.876Z,0.00
2023-05-06T00:16:14.823Z,0.00
2023-05-06T00:17:13.826Z,0.00
2023-05-06T00:18:15.386Z,0.00
2023-05-06T00:19:14.281Z,0.00
2023-05-06T00:20:15.277Z,0.00
2023-05-06T00:21:06.702Z,0.00
2023-05-06T00:22:15.252Z,0.00
2023-05-06T00:23:06.702Z,0.00
2023-05-06T00:24:06.697Z,0.00
2023-05-06T00:25:06.801Z,0.00
2023-05-06T00:26:06.666Z,0.00
2023-05-06T00:27:07.376Z,0.00
2023-05-06T00:28:06.670Z,0.00
2023-05-06T00:29:06.641Z,0.00
2023-05-06T00:30:06.896Z,0.00
2023-05-06T00:31:06.632Z,0.00
2023-05-06T00:32:06.769Z,0.00
2023-05-06T00:33:06.617Z,0.00
2023-05-06T00:34:06.606Z,0.00
2023-05-06T00:35:06.782Z,0.00
2023-05-06T00:36:06.570Z,0.00
2023-05-06T00:37:06.587Z,0.00
2023-05-06T00:38:06.550Z,0.00
2023-05-06T00:39:06.572Z,0.00
2023-05-06T00:40:06.537Z,0.00
2023-05-06T00:41:06.492Z,0.00
2023-05-06T00:42:06.489Z,0.00
2023-05-06T00:43:06.485Z,0.00
2023-05-06T00:44:08.152Z,0.00
2023-05-06T00:45:06.580Z,0.00
2023-05-06T00:46:06.508Z,0.00
2023-05-06T00:47:06.406Z,0.00
2023-05-06T00:48:06.490Z,0.00
2023-05-06T00:49:06.444Z,0.00
2023-05-06T00:50:06.435Z,0.00
2023-05-06T00:51:06.368Z,0.00
2023-05-06T00:52:06.380Z,0.00
2023-05-06T00:53:06.382Z,0.00
2023-05-06T00:54:06.360Z,0.00
2023-05-06T00:55:06.335Z,0.00
2023-05-06T00:56:06.380Z,0.00
2023-05-06T00:57:06.299Z,0.00
2023-05-06T00:58:06.272Z,0.00
2023-05-06T00:59:06.306Z,0.00
2023-05-06T01:00:06.307Z,0.00
2023-05-06T01:01:06.283Z,0.00
2023-05-06T01:02:06.313Z,0.00
2023-05-06T01:03:06.357Z,0.00
2023-05-06T01:04:06.292Z,0.00
2023-05-06T01:05:06.288Z,0.00
2023-05-06T01:06:06.192Z,0.00
2023-05-06T01:07:06.196Z,0.00
2023-05-06T01:08:06.214Z,0.00
2023-05-06T01:09:06.186Z,0.00
2023-05-06T01:10:06.160Z,0.00
2023-05-06T01:11:06.157Z,0.00
2023-05-06T01:12:06.147Z,0.00
2023-05-06T01:13:06.433Z,0.00
2023-05-06T01:14:06.112Z,0.00
2023-05-06T01:15:06.213Z,0.00
2023-05-06T01:16:06.114Z,0.00
2023-05-06T01:17:06.181Z,0.00
2023-05-06T01:18:06.101Z,0.00
2023-05-06T01:19:06.342Z,0.00
2023-05-06T01:20:06.035Z,0.00
2023-05-06T01:21:06.066Z,0.00
2023-05-06T01:22:06.041Z,0.00
2023-05-06T01:23:06.009Z,0.00
2023-05-06T01:24:05.988Z,0.00
2023-05-06T01:25:05.968Z,0.00
2023-05-06T01:26:05.969Z,0.00
2023-05-06T01:27:05.971Z,0.00
2023-05-06T01:28:05.938Z,0.00
2023-05-06T01:29:05.924Z,0.00
2023-05-06T01:30:05.922Z,0.00
2023-05-06T01:31:05.952Z,0.00
2023-05-06T01:32:05.898Z,0.00
2023-05-06T01:33:05.880Z,0.00
2023-05-06T01:34:05.877Z,0.00
2023-05-06T01:35:05.882Z,0.00
2023-05-06T01:36:05.864Z,0.00
2023-05-06T01:37:05.856Z,0.00
2023-05-06T01:38:05.832Z,0.00
2023-05-06T01:39:05.808Z,0.00
2023-05-06T01:40:05.817Z,0.00
2023-05-06T01:41:05.818Z,0.00
2023-05-06T01:42:05.880Z,0.00
2023-05-06T01:43:05.796Z,0.00
2023-05-06T01:44:05.777Z,0.00
2023-05-06T01:45:05.776Z,0.00
2023-05-06T01:46:05.853Z,0.00
2023-05-06T01:47:05.794Z,0.00
2023-05-06T01:48:05.810Z,0.00
2023-05-06T01:49:05.709Z,0.00
2023-05-06T01:50:05.854Z,0.00
2023-05-06T01:51:05.685Z,0.00
2023-05-06T01:52:05.688Z,0.00
2023-05-06T01:53:05.691Z,0.00
2023-05-06T01:54:05.718Z,0.00
2023-05-06T01:55:05.635Z,0.00
2023-05-06T01:56:05.646Z,0.00
2023-05-06T01:57:05.685Z,0.00
2023-05-06T01:58:05.624Z,0.00
2023-05-06T01:59:05.620Z,0.00
2023-05-06T02:00:05.594Z,0.00
2023-05-06T02:01:05.572Z,0.00
2023-05-06T02:02:05.649Z,0.00
2023-05-06T02:03:05.692Z,0.00
2023-05-06T02:04:05.943Z,0.00
2023-05-06T02:05:05.538Z,0.00
2023-05-06T02:06:05.516Z,0.00
2023-05-06T02:07:05.505Z,0.00
2023-05-06T02:08:05.530Z,0.00
2023-05-06T02:09:05.499Z,0.00
2023-05-06T02:10:05.471Z,0.00
2023-05-06T02:11:13.504Z,0.00
2023-05-06T02:12:13.978Z,0.00
2023-05-06T02:13:05.566Z,0.00
2023-05-06T02:14:13.430Z,0.00
2023-05-06T02:15:05.422Z,0.00
2023-05-06T02:16:05.412Z,0.00
2023-05-06T02:17:05.413Z,0.00
2023-05-06T02:18:05.447Z,0.00
2023-05-06T02:19:05.377Z,0.00
2023-05-06T02:20:05.348Z,0.00
2023-05-06T02:21:05.363Z,0.00
2023-05-06T02:22:05.360Z,0.00
2023-05-06T02:23:05.320Z,0.00
2023-05-06T02:24:05.304Z,0.00
2023-05-06T02:25:05.625Z,0.00
2023-05-06T02:26:05.552Z,0.00
2023-05-06T02:27:09.145Z,0.00
2023-05-06T02:28:07.130Z,0.00
2023-05-06T02:29:08.221Z,0.00
2023-05-06T02:30:07.478Z,0.00
2023-05-06T02:31:06.886Z,0.00
2023-05-06T02:32:07.043Z,0.00
2023-05-06T02:33:05.488Z,0.00
2023-05-06T02:34:06.916Z,0.00
2023-05-06T02:35:05.244Z,0.00
2023-05-06T02:36:05.203Z,0.00
2023-05-06T02:37:06.148Z,0.00
2023-05-06T02:38:08.877Z,0.00
2023-05-06T02:39:05.153Z,0.00
2023-05-06T02:40:07.503Z,0.00
2023-05-06T02:41:08.961Z,0.00
2023-05-06T02:42:08.994Z,0.00
2023-05-06T02:43:05.431Z,0.00
2023-05-06T02:44:06.256Z,0.00
2023-05-06T02:45:09.561Z,0.00
2023-05-06T02:46:07.186Z,0.00
2023-05-06T02:47:08.401Z,0.00
2023-05-06T02:48:10.895Z,0.00
2023-05-06T02:49:08.691Z,0.00
2023-05-06T02:50:16.409Z,0.00
2023-05-06T02:51:09.222Z,0.00
2023-05-06T02:52:07.000Z,0.00
2023-05-06T02:53:09.776Z,0.00
2023-05-06T02:54:06.896Z,0.00
2023-05-06T02:55:08.218Z,0.00
2023-05-06T02:56:08.760Z,0.00
2023-05-06T02:57:07.936Z,0.00
2023-05-06T02:58:06.779Z,0.00
2023-05-06T02:59:08.810Z,0.00
2023-05-06T03:00:08.093Z,0.00
2023-05-06T03:01:11.709Z,0.00
2023-05-06T03:02:08.229Z,0.00
2023-05-06T03:03:08.823Z,0.00
2023-05-06T03:04:08.003Z,0.00
2023-05-06T03:05:09.767Z,0.00
2023-05-06T03:06:05.092Z,0.00
2023-05-06T03:07:06.620Z,0.00
2023-05-06T03:08:09.629Z,0.00
2023-05-06T03:09:05.687Z,0.00
2023-05-06T03:10:06.302Z,0.00
2023-05-06T03:11:09.837Z,0.00
2023-05-06T03:12:11.378Z,0.00
2023-05-06T03:13:18.823Z,0.00
2023-05-06T03:15:23.705Z,0.00
2023-05-06T03:16:24.764Z,0.00
2023-05-06T03:17:31.040Z,0.00
2023-05-06T03:18:25.448Z,0.00
2023-05-06T03:19:30.215Z,0.00
2023-05-06T03:20:25.458Z,0.00
2023-05-06T03:21:24.581Z,0.00
2023-05-06T03:22:26.070Z,0.00
2023-05-06T03:24:35.977Z,0.00
2023-05-06T03:25:33.236Z,0.00
2023-05-06T03:26:37.677Z,0.00
2023-05-06T03:27:35.670Z,0.00
2023-05-06T03:28:35.067Z,0.00
2023-05-06T03:29:35.717Z,0.00
2023-05-06T03:30:34.882Z,0.00
2023-05-06T03:31:36.069Z,0.00
2023-05-06T03:32:40.437Z,0.00
2023-05-06T03:33:33.119Z,0.00
2023-05-06T03:34:33.955Z,0.00
2023-05-06T03:35:32.713Z,0.00
2023-05-06T03:36:32.712Z,0.00
2023-05-06T03:37:32.704Z,0.00
2023-05-06T03:38:32.701Z,0.00
2023-05-06T03:39:32.685Z,0.00
2023-05-06T03:40:32.670Z,0.00
2023-05-06T03:41:32.678Z,0.00
2023-05-06T03:42:32.642Z,0.00
2023-05-06T03:43:32.627Z,0.00
2023-05-06T03:44:32.648Z,0.00
2023-05-06T03:45:32.601Z,0.00
2023-05-06T03:46:32.687Z,0.00
2023-05-06T03:47:32.604Z,0.00
2023-05-06T03:48:32.572Z,0.00
2023-05-06T03:49:32.576Z,0.00
2023-05-06T03:50:32.595Z,5.62
2023-05-06T03:51:32.543Z,5.62
2023-05-06T03:52:32.541Z,5.62
2023-05-06T03:53:32.520Z,5.62
2023-05-06T03:54:32.509Z,5.62
2023-05-06T03:55:32.677Z,5.62
2023-05-06T03:56:32.481Z,5.62
2023-05-06T03:57:32.483Z,11.25
2023-05-06T03:58:32.478Z,11.25
2023-05-06T03:59:32.440Z,11.25
2023-05-06T04:00:32.449Z,11.25
2023-05-06T04:01:32.424Z,11.25
2023-05-06T04:02:32.534Z,16.88
2023-05-06T04:03:32.609Z,16.88
2023-05-06T04:04:32.421Z,16.88
2023-05-06T04:05:32.399Z,16.88
2023-05-06T04:06:32.361Z,16.88
2023-05-06T04:07:32.326Z,22.50
2023-05-06T04:08:40.345Z,22.50
2023-05-06T04:09:39.370Z,22.50
2023-05-06T04:10:40.352Z,22.50
2023-05-06T04:11:40.809Z,28.12
2023-05-06T04:12:32.323Z,28.12
2023-05-06T04:13:40.304Z,28.12
2023-05-06T04:14:32.300Z,33.75
2023-05-06T04:15:32.264Z,33.75
2023-05-06T04:16:32.307Z,33.75
2023-05-06T04:17:32.266Z,33.75
2023-05-06T04:18:32.231Z,39.38
2023-05-06T04:19:32.231Z,39.38
2023-05-06T04:20:32.204Z,39.38
2023-05-06T04:21:32.200Z,45.00
2023-05-06T04:22:32.197Z,45.00
2023-05-06T04:23:32.177Z,45.00
2023-05-06T04:24:32.173Z,50.62
2023-05-06T04:25:32.150Z,50.62
2023-05-06T04:26:32.146Z,50.62
2023-05-06T04:27:32.139Z,50.62
2023-05-06T04:28:32.130Z,56.25
2023-05-06T04:29:32.092Z,56.25
2023-05-06T04:30:32.118Z,56.25
2023-05-06T04:31:32.116Z,61.88
2023-05-06T04:32:32.090Z,61.88
2023-05-06T04:33:32.051Z,61.88
2023-05-06T04:34:32.049Z,67.50
2023-05-06T04:35:32.065Z,67.50
2023-05-06T04:36:32.033Z,67.50
2023-05-06T04:37:32.032Z,67.50
2023-05-06T04:38:32.136Z,73.12
2023-05-06T04:39:31.989Z,73.12
2023-05-06T04:40:31.960Z,73.12
2023-05-06T04:41:31.976Z,78.75
2023-05-06T04:42:31.950Z,78.75
2023-05-06T04:43:31.927Z,78.75
2023-05-06T04:44:31.929Z,84.38
2023-05-06T04:45:31.952Z,84.38
2023-05-06T04:46:31.919Z,84.38
2023-05-06T04:47:31.894Z,90.00
2023-05-06T04:48:31.877Z,90.00
2023-05-06T04:49:31.884Z,90.00
2023-05-06T04:50:31.842Z,95.62
2023-05-06T04:51:31.882Z,95.62
2023-05-06T04:52:31.847Z,95.62
2023-05-06T04:53:31.820Z,101.25
2023-05-06T04:54:31.813Z,101.25
2023-05-06T04:55:31.806Z,101.25
2023-05-06T04:56:31.816Z,101.25
2023-05-06T04:57:31.778Z,106.88
2023-05-06T04:58:31.780Z,106.88
2023-05-06T04:59:31.777Z,106.88
2023-05-06T05:00:31.738Z,112.50
2023-05-06T05:01:31.765Z,112.50
2023-05-06T05:02:31.799Z,112.50
2023-05-06T05:03:31.870Z,118.12
2023-05-06T05:04:31.695Z,118.12
2023-05-06T05:05:31.705Z,118.12
2023-05-06T05:06:31.679Z,118.12
2023-05-06T05:07:31.662Z,118.12
2023-05-06T05:08:31.695Z,118.12
2023-05-06T05:09:31.664Z,118.12
2023-05-06T05:10:31.661Z,123.75
2023-05-06T05:11:31.609Z,123.75
2023-05-06T05:12:31.596Z,123.75
2023-05-06T05:13:31.616Z,129.38
2023-05-06T05:14:31.593Z,129.38
2023-05-06T05:15:31.581Z,129.38
2023-05-06T05:16:31.595Z,129.38
2023-05-06T05:17:31.619Z,129.38
2023-05-06T05:18:31.532Z,129.38
2023-05-06T05:19:31.554Z,135.00
2023-05-06T05:20:31.535Z,135.00
2023-05-06T05:21:31.524Z,135.00
2023-05-06T05:22:31.550Z,135.00
2023-05-06T05:23:31.523Z,140.62
2023-05-06T05:24:31.514Z,140.62
2023-05-06T05:25:31.455Z,140.62
2023-05-06T05:26:31.427Z,140.62
2023-05-06T05:27:31.455Z,140.62
2023-05-06T05:28:31.411Z,140.62
2023-05-06T05:29:31.421Z,140.62
2023-05-06T05:30:31.414Z,146.25
2023-05-06T05:31:31.578Z,146.25
2023-05-06T05:32:31.398Z,146.25
2023-05-06T05:33:31.412Z,151.88
2023-05-06T05:34:31.369Z,151.88
2023-05-06T05:35:31.338Z,151.88
2023-05-06T05:36:31.318Z,151.88
2023-05-06T05:37:31.328Z,151.88
2023-05-06T05:38:31.340Z,157.50
2023-05-06T05:39:31.322Z,157.50
2023-05-06T05:40:31.259Z,157.50
2023-05-06T05:41:31.281Z,157.50
2023-05-06T05:42:31.261Z,157.50
2023-05-06T05:43:31.549Z,157.50
2023-05-06T05:44:31.248Z,163.12
2023-05-06T05:45:31.261Z,163.12
2023-05-06T05:46:31.261Z,163.12
2023-05-06T05:47:31.300Z,163.12
2023-05-06T05:48:31.189Z,168.75
2023-05-06T05:49:31.223Z,168.75
2023-05-06T05:50:31.166Z,168.75
2023-05-06T05:51:31.178Z,168.75
2023-05-06T05:52:31.173Z,168.75
2023-05-06T05:53:31.121Z,174.38
2023-05-06T05:54:31.143Z,174.38
2023-05-06T05:55:31.124Z,174.38
2023-05-06T05:56:31.127Z,174.38
2023-05-06T05:57:31.132Z,180.00
2023-05-06T05:58:31.071Z,180.00
2023-05-06T05:59:31.074Z,185.62
2023-05-06T06:00:31.053Z,185.62
2023-05-06T06:01:31.050Z,185.62
2023-05-06T06:02:31.084Z,185.62
2023-05-06T06:03:38.204Z,185.62
2023-05-06T06:04:39.035Z,185.62
2023-05-06T06:05:39.019Z,185.62
2023-05-06T06:06:30.996Z,185.62
2023-05-06T06:07:30.969Z,185.62
2023-05-06T06:08:30.989Z,163.12
2023-05-06T06:09:31.008Z,174.38
2023-05-06T06:10:30.965Z,191.25
2023-05-06T06:11:30.947Z,191.25
2023-05-06T06:12:30.955Z,185.62
2023-05-06T06:13:31.057Z,191.25
2023-05-06T06:14:30.911Z,191.25
2023-05-06T06:15:30.898Z,196.88
2023-05-06T06:16:30.958Z,191.25
2023-05-06T06:17:30.987Z,191.25
2023-05-06T06:18:30.862Z,191.25
2023-05-06T06:19:30.864Z,185.62
2023-05-06T06:20:31.143Z,185.62
2023-05-06T06:21:30.800Z,196.88
2023-05-06T06:22:30.813Z,196.88
2023-05-06T06:23:31.081Z,202.50
2023-05-06T06:24:30.824Z,202.50
2023-05-06T06:25:35.559Z,196.88
2023-05-06T06:26:30.767Z,202.50
2023-05-06T06:27:30.779Z,202.50
2023-05-06T06:28:30.750Z,202.50
2023-05-06T06:29:30.748Z,202.50
2023-05-06T06:30:30.717Z,202.50
2023-05-06T06:31:30.708Z,202.50
2023-05-06T06:32:30.733Z,196.88
2023-05-06T06:33:30.701Z,208.12
2023-05-06T06:34:30.707Z,213.75
2023-05-06T06:35:30.651Z,208.12
2023-05-06T06:36:30.661Z,208.12
2023-05-06T06:37:30.631Z,213.75
2023-05-06T06:38:30.654Z,213.75
2023-05-06T06:39:30.604Z,213.75
2023-05-06T06:40:30.627Z,219.38
2023-05-06T06:41:33.301Z,219.38
2023-05-06T06:42:30.573Z,213.75
2023-05-06T06:43:30.595Z,213.75
2023-05-06T06:44:30.570Z,225.00
2023-05-06T06:45:30.559Z,219.38
2023-05-06T06:46:33.289Z,219.38
2023-05-06T06:47:30.736Z,219.38
2023-05-06T06:48:30.518Z,225.00
2023-05-06T06:49:30.486Z,225.00
2023-05-06T06:50:30.508Z,225.00
2023-05-06T06:51:30.466Z,225.00
2023-05-06T06:52:30.474Z,219.38
2023-05-06T06:53:32.369Z,225.00
2023-05-06T06:54:30.453Z,225.00
2023-05-06T06:55:30.468Z,225.00
2023-05-06T06:56:30.409Z,219.38
2023-05-06T06:57:30.420Z,219.38
2023-05-06T06:58:30.398Z,219.38
2023-05-06T06:59:30.380Z,219.38
2023-05-06T07:00:30.474Z,219.38
2023-05-06T07:01:30.663Z,219.38
2023-05-06T07:02:30.672Z,219.38
2023-05-06T07:03:31.324Z,225.00
2023-05-06T07:04:30.394Z,230.62
2023-05-06T07:05:30.313Z,225.00
2023-05-06T07:06:30.303Z,225.00
2023-05-06T07:07:30.315Z,230.62
2023-05-06T07:08:30.263Z,230.62
2023-05-06T07:09:30.299Z,230.62
2023-05-06T07:10:30.306Z,230.62
2023-05-06T07:11:30.254Z,230.62
2023-05-06T07:12:30.231Z,230.62
2023-05-06T07:13:30.217Z,230.62
2023-05-06T07:14:30.204Z,230.62
2023-05-06T07:15:30.184Z,230.62
2023-05-06T07:16:30.214Z,236.25
2023-05-06T07:17:30.161Z,236.25
2023-05-06T07:18:30.154Z,236.25
2023-05-06T07:19:30.126Z,236.25
2023-05-06T07:20:30.148Z,236.25
2023-05-06T07:21:30.105Z,202.50
2023-05-06T07:22:30.119Z,236.25
2023-05-06T07:23:32.068Z,236.25
2023-05-06T07:24:30.095Z,236.25
2023-05-06T07:25:30.084Z,236.25
2023-05-06T07:26:30.075Z,236.25
2023-05-06T07:27:30.052Z,236.25
2023-05-06T07:28:30.144Z,236.25
2023-05-06T07:29:30.060Z,236.25
2023-05-06T07:30:30.042Z,236.25
2023-05-06T07:31:30.049Z,236.25
2023-05-06T07:32:30.096Z,236.25
2023-05-06T07:33:29.987Z,241.88
2023-05-06T07:34:29.961Z,241.88
2023-05-06T07:35:30.021Z,247.50
2023-05-06T07:36:29.948Z,253.12
2023-05-06T07:37:29.954Z,264.38
2023-05-06T07:38:29.951Z,230.62
2023-05-06T07:39:29.969Z,258.75
2023-05-06T07:40:29.890Z,264.38
2023-05-06T07:41:29.910Z,264.38
2023-05-06T07:42:29.880Z,264.38
2023-05-06T07:43:29.902Z,264.38
2023-05-06T07:44:29.856Z,264.38
2023-05-06T07:45:29.883Z,270.00
2023-05-06T07:46:29.901Z,270.00
2023-05-06T07:47:29.908Z,281.25
2023-05-06T07:48:29.878Z,292.50
2023-05-06T07:49:29.798Z,281.25
2023-05-06T07:50:29.836Z,309.38
2023-05-06T07:51:29.826Z,309.38
2023-05-06T07:52:29.775Z,315.00
2023-05-06T07:53:29.754Z,326.25
2023-05-06T07:54:38.014Z,275.62
2023-05-06T07:55:43.751Z,275.62
2023-05-06T07:56:37.244Z,270.00
2023-05-06T07:57:37.748Z,281.25
2023-05-06T07:58:29.822Z,281.25
2023-05-06T07:59:37.698Z,303.75
2023-05-06T08:00:29.675Z,275.62
2023-05-06T08:01:29.682Z,315.00
2023-05-06T08:02:29.739Z,292.50
2023-05-06T08:03:29.820Z,315.00
2023-05-06T08:04:29.684Z,286.88
2023-05-06T08:05:29.633Z,315.00
2023-05-06T08:06:29.610Z,303.75
2023-05-06T08:07:29.635Z,270.00
2023-05-06T08:08:32.354Z,286.88
2023-05-06T08:09:33.451Z,315.00
2023-05-06T08:10:29.557Z,326.25
2023-05-06T08:11:29.973Z,275.62
2023-05-06T08:12:31.528Z,365.62
2023-05-06T08:13:29.517Z,371.25
2023-05-06T08:14:29.528Z,382.50
2023-05-06T08:15:29.537Z,393.75
2023-05-06T08:16:29.518Z,405.00
2023-05-06T08:17:32.275Z,376.88
2023-05-06T08:18:29.534Z,393.75
2023-05-06T08:19:30.311Z,388.12
2023-05-06T08:20:29.459Z,399.38
2023-05-06T08:21:29.512Z,337.50
2023-05-06T08:22:29.489Z,320.62
2023-05-06T08:23:29.425Z,303.75
2023-05-06T08:24:29.429Z,286.88
2023-05-06T08:25:29.448Z,320.62
2023-05-06T08:26:29.381Z,315.00
2023-05-06T08:27:29.371Z,309.38
2023-05-06T08:28:29.376Z,309.38
2023-05-06T08:29:29.392Z,303.75
2023-05-06T08:30:29.324Z,303.75
2023-05-06T08:31:29.400Z,298.12
2023-05-06T08:32:29.323Z,292.50
2023-05-06T08:33:29.301Z,303.75
2023-05-06T08:34:29.339Z,303.75
2023-05-06T08:35:29.313Z,309.38
2023-05-06T08:36:29.268Z,303.75
2023-05-06T08:37:29.283Z,315.00
2023-05-06T08:38:29.234Z,320.62
2023-05-06T08:39:29.228Z,320.62
2023-05-06T08:40:29.251Z,303.75
2023-05-06T08:41:29.215Z,309.38
2023-05-06T08:42:29.202Z,315.00
2023-05-06T08:43:29.200Z,309.38
2023-05-06T08:44:29.169Z,326.25
2023-05-06T08:45:29.732Z,264.38
2023-05-06T08:46:29.185Z,264.38
2023-05-06T08:47:29.197Z,286.88
2023-05-06T08:48:29.106Z,315.00
2023-05-06T08:49:29.122Z,376.88
2023-05-06T08:50:29.106Z,388.12
2023-05-06T08:51:29.097Z,410.62
2023-05-06T08:52:29.097Z,410.62
2023-05-06T08:53:29.097Z,360.00
2023-05-06T08:54:29.034Z,343.12
2023-05-06T08:55:29.032Z,337.50
2023-05-06T08:56:29.048Z,303.75
2023-05-06T08:57:29.025Z,309.38
2023-05-06T08:58:28.999Z,388.12
2023-05-06T08:59:29.003Z,331.88
2023-05-06T09:00:28.980Z,371.25
2023-05-06T09:01:29.057Z,365.62
2023-05-06T09:02:29.082Z,354.38
2023-05-06T09:03:29.053Z,348.75
2023-05-06T09:04:28.935Z,343.12
2023-05-06T09:05:28.971Z,343.12
2023-05-06T09:06:28.925Z,337.50
2023-05-06T09:07:28.910Z,337.50
2023-05-06T09:08:28.979Z,343.12
2023-05-06T09:09:28.910Z,348.75
2023-05-06T09:10:28.874Z,343.12
2023-05-06T09:11:28.875Z,326.25
2023-05-06T09:12:28.839Z,343.12
2023-05-06T09:13:28.814Z,348.75
2023-05-06T09:14:28.850Z,371.25
2023-05-06T09:15:29.091Z,382.50
2023-05-06T09:16:28.857Z,393.75
2023-05-06T09:17:28.842Z,393.75
2023-05-06T09:18:28.784Z,365.62
2023-05-06T09:19:31.520Z,343.12
2023-05-06T09:20:28.731Z,337.50
2023-05-06T09:21:28.805Z,343.12
2023-05-06T09:22:28.738Z,348.75
2023-05-06T09:23:28.693Z,354.38
2023-05-06T09:24:28.726Z,253.12
2023-05-06T09:25:28.685Z,247.50
2023-05-06T09:26:28.798Z,247.50
2023-05-06T09:27:28.693Z,258.75
2023-05-06T09:28:28.647Z,281.25
2023-05-06T09:29:28.645Z,360.00
2023-05-06T09:30:28.672Z,365.62
2023-05-06T09:31:28.807Z,360.00
2023-05-06T09:32:28.649Z,354.38
2023-05-06T09:33:28.600Z,365.62
2023-05-06T09:34:28.577Z,371.25
2023-05-06T09:35:31.468Z,365.62
2023-05-06T09:36:28.559Z,388.12
2023-05-06T09:37:28.565Z,393.75
2023-05-06T09:38:28.542Z,393.75
2023-05-06T09:39:28.584Z,399.38
2023-05-06T09:40:28.527Z,399.38
2023-05-06T09:41:28.542Z,399.38
2023-05-06T09:42:28.494Z,399.38
2023-05-06T09:43:28.475Z,416.25
2023-05-06T09:44:28.478Z,427.50
2023-05-06T09:45:28.475Z,433.12
2023-05-06T09:46:28.481Z,438.75
2023-05-06T09:47:28.494Z,438.75
2023-05-06T09:48:28.408Z,438.75
2023-05-06T09:49:36.442Z,444.38
2023-05-06T09:50:28.381Z,450.00
2023-05-06T09:51:36.931Z,450.00
2023-05-06T09:52:28.388Z,444.38
2023-05-06T09:53:28.388Z,444.38
2023-05-06T09:54:28.385Z,450.00
2023-05-06T09:55:28.340Z,461.25
2023-05-06T09:56:28.332Z,478.12
2023-05-06T09:57:28.326Z,455.62
2023-05-06T09:58:28.341Z,455.62
2023-05-06T09:59:28.294Z,450.00
2023-05-06T10:00:28.392Z,461.25
2023-05-06T10:01:36.098Z,444.38
2023-05-06T10:02:29.441Z,444.38
2023-05-06T10:03:28.438Z,388.12
2023-05-06T10:04:28.698Z,393.75
2023-05-06T10:05:28.306Z,433.12
2023-05-06T10:06:28.214Z,523.12
2023-05-06T10:07:28.227Z,433.12
2023-05-06T10:08:28.221Z,421.88
2023-05-06T10:09:28.207Z,421.88
2023-05-06T10:10:28.205Z,427.50
2023-05-06T10:11:28.165Z,472.50
2023-05-06T10:12:28.148Z,433.12
2023-05-06T10:13:28.176Z,421.88
2023-05-06T10:14:28.128Z,416.25
2023-05-06T10:15:28.148Z,421.88
2023-05-06T10:16:28.206Z,433.12
2023-05-06T10:17:28.177Z,433.12
2023-05-06T10:18:28.086Z,438.75
2023-05-06T10:19:28.073Z,444.38
2023-05-06T10:20:28.070Z,444.38
2023-05-06T10:21:28.058Z,450.00
2023-05-06T10:22:28.103Z,461.25
2023-05-06T10:23:28.022Z,450.00
2023-05-06T10:24:28.043Z,427.50
2023-05-06T10:25:28.016Z,421.88
2023-05-06T10:26:28.021Z,427.50
2023-05-06T10:27:27.998Z,438.75
2023-05-06T10:28:30.923Z,438.75
2023-05-06T10:29:27.963Z,450.00
2023-05-06T10:30:27.939Z,450.00
2023-05-06T10:31:28.004Z,444.38
2023-05-06T10:32:27.958Z,455.62
2023-05-06T10:33:27.946Z,466.88
2023-05-06T10:34:27.897Z,472.50
2023-05-06T10:35:27.899Z,478.12
2023-05-06T10:36:27.920Z,466.88
2023-05-06T10:37:27.865Z,461.25
2023-05-06T10:38:27.866Z,461.25
2023-05-06T10:39:27.878Z,466.88
2023-05-06T10:40:27.838Z,478.12
2023-05-06T10:41:27.960Z,483.75
2023-05-06T10:42:27.824Z,489.38
2023-05-06T10:43:27.792Z,556.88
2023-05-06T10:44:27.794Z,506.25
2023-05-06T10:45:27.816Z,472.50
2023-05-06T10:46:27.786Z,455.62
2023-05-06T10:47:27.800Z,450.00
2023-05-06T10:48:27.766Z,444.38
2023-05-06T10:49:28.105Z,438.75
2023-05-06T10:50:30.501Z,433.12
2023-05-06T10:51:29.588Z,444.38
2023-05-06T10:52:27.704Z,450.00
2023-05-06T10:53:28.003Z,466.88
2023-05-06T10:54:27.687Z,517.50
2023-05-06T10:55:27.964Z,613.12
2023-05-06T10:56:27.670Z,624.38
2023-05-06T10:57:27.646Z,511.88
2023-05-06T10:58:27.958Z,523.12
2023-05-06T10:59:29.638Z,523.12
2023-05-06T11:00:27.619Z,528.75
2023-05-06T11:01:27.596Z,540.00
2023-05-06T11:02:27.642Z,568.12
2023-05-06T11:03:27.814Z,568.12
2023-05-06T11:04:27.576Z,596.25
2023-05-06T11:05:27.535Z,607.50
2023-05-06T11:06:29.368Z,601.88
2023-05-06T11:07:27.542Z,579.38
2023-05-06T11:08:27.576Z,556.88
2023-05-06T11:09:27.544Z,540.00
2023-05-06T11:10:27.506Z,534.38
2023-05-06T11:11:27.810Z,534.38
2023-05-06T11:12:27.489Z,540.00
2023-05-06T11:13:27.835Z,545.62
2023-05-06T11:14:27.453Z,556.88
2023-05-06T11:15:27.482Z,562.50
2023-05-06T11:16:27.478Z,562.50
2023-05-06T11:17:27.565Z,568.12
2023-05-06T11:18:27.389Z,568.12
2023-05-06T11:19:27.507Z,568.12
2023-05-06T11:20:27.383Z,562.50
2023-05-06T11:21:27.363Z,551.25
2023-05-06T11:22:27.380Z,556.88
2023-05-06T11:23:27.325Z,551.25
2023-05-06T11:24:27.338Z,545.62
2023-05-06T11:25:27.296Z,545.62
2023-05-06T11:26:27.326Z,534.38
2023-05-06T11:27:27.308Z,534.38
2023-05-06T11:28:27.295Z,545.62
2023-05-06T11:29:27.270Z,556.88
2023-05-06T11:30:30.099Z,545.62
2023-05-06T11:31:27.262Z,545.62
2023-05-06T11:32:27.339Z,540.00
2023-05-06T11:33:27.208Z,534.38
2023-05-06T11:34:27.237Z,551.25
2023-05-06T11:35:27.199Z,579.38
2023-05-06T11:36:27.197Z,596.25
2023-05-06T11:37:27.225Z,613.12
2023-05-06T11:38:27.162Z,613.12
2023-05-06T11:39:27.169Z,607.50
2023-05-06T11:40:40.200Z,624.38
2023-05-06T11:42:56.498Z,675.00
2023-05-06T11:43:56.211Z,641.25
2023-05-06T11:47:37.947Z,658.12
2023-05-06T11:48:37.758Z,607.50
2023-05-06T11:49:37.753Z,635.62
2023-05-06T11:50:37.767Z,663.75
2023-05-06T11:51:37.730Z,646.88
2023-05-06T11:52:37.780Z,658.12
2023-05-06T11:53:37.725Z,669.38
2023-05-06T11:54:37.734Z,703.12
2023-05-06T11:55:37.701Z,697.50
2023-05-06T11:56:40.496Z,686.25
2023-05-06T11:57:37.699Z,675.00
2023-05-06T11:58:37.647Z,686.25
2023-05-06T11:59:37.690Z,613.12
2023-05-06T12:00:37.970Z,686.25
2023-05-06T12:01:37.614Z,686.25
2023-05-06T12:02:37.686Z,686.25
2023-05-06T12:03:37.764Z,652.50
2023-05-06T12:04:37.728Z,607.50
2023-05-06T12:05:37.588Z,624.38
2023-05-06T12:06:37.552Z,680.62
2023-05-06T12:07:37.535Z,714.38
2023-05-06T12:08:37.551Z,736.88
2023-05-06T12:09:37.544Z,748.12
2023-05-06T12:10:37.559Z,759.38
2023-05-06T12:11:37.498Z,742.50
2023-05-06T12:12:40.353Z,714.38
2023-05-06T12:13:37.509Z,742.50
2023-05-06T12:14:37.521Z,731.25
2023-05-06T12:15:38.237Z,697.50
2023-05-06T12:16:37.594Z,697.50
2023-05-06T12:17:37.498Z,680.62
2023-05-06T12:18:37.456Z,714.38
2023-05-06T12:19:37.478Z,736.88
2023-05-06T12:20:37.418Z,736.88
2023-05-06T12:21:37.412Z,635.62
2023-05-06T12:22:37.412Z,624.38
2023-05-06T12:23:37.435Z,613.12
2023-05-06T12:24:37.648Z,607.50
2023-05-06T12:25:38.296Z,613.12
2023-05-06T12:26:37.322Z,613.12
2023-05-06T12:27:37.424Z,618.75
2023-05-06T12:28:37.344Z,630.00
2023-05-06T12:29:37.327Z,641.25
2023-05-06T12:30:37.312Z,652.50
2023-05-06T12:31:37.764Z,669.38
2023-05-06T12:32:37.330Z,742.50
2023-05-06T12:33:40.084Z,714.38
2023-05-06T12:34:37.268Z,703.12
2023-05-06T12:35:37.610Z,714.38
2023-05-06T12:36:37.253Z,731.25
2023-05-06T12:37:37.990Z,765.00
2023-05-06T12:38:37.233Z,736.88
2023-05-06T12:39:37.288Z,748.12
2023-05-06T12:40:37.492Z,770.62
2023-05-06T12:41:38.983Z,770.62
2023-05-06T12:42:37.258Z,776.25
2023-05-06T12:43:37.177Z,753.75
2023-05-06T12:44:37.169Z,781.88
2023-05-06T12:45:37.190Z,787.50
2023-05-06T12:46:37.187Z,793.12
2023-05-06T12:47:37.155Z,798.75
2023-05-06T12:48:37.114Z,793.12
2023-05-06T12:49:37.090Z,804.38
2023-05-06T12:50:37.119Z,798.75